Language: 


Des rapports , des résumés tant et plus, au choix de chacun....


Données Historiques de Météogheer
Journalier Rapport pour Février 28, 2018 Unitée:  Les deux    Impériale   Métrique
Suivant Jour »
Journalier Hebdomadaire Mensuel Annuel Sur mesure
  Max: Min: Moyenne:
Température: 31.3 °F /  -0.4 °C 19 °F /  -7.2 °C 24.6 °F /  -4.1 °C
Point de rosée: 12.2 °F /  -11.0 °C 3.2 °F /  -16.0 °C 7.5 °F /  -13.6 °C
Humidité: 73% 32% 52%
Vent: 21mph /  33.8km/h - 8.6mph /  13.8km/h
Rafales: 24.6mph /  39.6km/h - -
Vent- - ENE
Pression: 30.1 in /  1018.2 hPa 0 in /  0.0 hPa -
Pluie: 0 in /  0.0 mm    
Historical Graphs
 
 
Données tabulaires pour Février 28, 2018
Heure Température Point de rosée Pression Vent Vent Rafales Humidité Pluie Taux (Horaire) Conditions
00:03 22.3 °F /  -5.4 °C 12.2 °F /  -11.0 °C 30.1in /  1018.2hPa NE 1.1mph /  1.8km/h 4mph /  6.4km/h 65% 0in /  0.0mm
00:08 22.3 °F /  -5.4 °C 12.2 °F /  -11.0 °C 30.1in /  1018.2hPa Calm   4mph /  6.4km/h 65% 0in /  0.0mm
00:13 22.1 °F /  -5.5 °C 10.4 °F /  -12.0 °C 30.1in /  1018.2hPa NE 2.5mph /  4.0km/h 4.5mph /  7.2km/h 65% 0in /  0.0mm
00:18 22.1 °F /  -5.5 °C 10.4 °F /  -12.0 °C 30in /  1016.8hPa ENE 4mph /  6.4km/h 4.7mph /  7.6km/h 65% 0in /  0.0mm
00:23 21.9 °F /  -5.6 °C 10.4 °F /  -12.0 °C 30in /  1016.8hPa NNE 3.8mph /  6.1km/h 4.7mph /  7.6km/h 65% 0in /  0.0mm
00:28 21.9 °F /  -5.6 °C 10.4 °F /  -12.0 °C 30in /  1016.8hPa NE 3.8mph /  6.1km/h 5.4mph /  8.7km/h 66% 0in /  0.0mm
00:33 21.7 °F /  -5.7 °C 10.4 °F /  -12.0 °C 30in /  1016.8hPa Calm   5.4mph /  8.7km/h 66% 0in /  0.0mm
00:38 21.6 °F /  -5.8 °C 10.4 °F /  -12.0 °C 30in /  1016.8hPa NE 3.1mph /  5.0km/h 4.9mph /  7.9km/h 66% 0in /  0.0mm
00:43 21.6 °F /  -5.8 °C 10.4 °F /  -12.0 °C 30in /  1016.8hPa Calm   7.2mph /  11.6km/h 66% 0in /  0.0mm
00:48 21.6 °F /  -5.8 °C 10.4 °F /  -12.0 °C 30in /  1016.8hPa ENE 4mph /  6.4km/h 7.2mph /  11.6km/h 67% 0in /  0.0mm
00:53 21.6 °F /  -5.8 °C 10.4 °F /  -12.0 °C 30in /  1016.8hPa ENE 4.3mph /  6.9km/h 5.6mph /  9.0km/h 67% 0in /  0.0mm
00:58 21.7 °F /  -5.7 °C 12.2 °F /  -11.0 °C 30in /  1016.8hPa ENE 2.5mph /  4.0km/h 5.4mph /  8.7km/h 67% 0in /  0.0mm
01:03 21.7 °F /  -5.7 °C 12.2 °F /  -11.0 °C 30in /  1016.8hPa ENE 3.4mph /  5.5km/h 4.9mph /  7.9km/h 67% 0in /  0.0mm
01:08 21.6 °F /  -5.8 °C 10.4 °F /  -12.0 °C 30in /  1016.8hPa East 2.9mph /  4.7km/h 4.3mph /  6.9km/h 67% 0in /  0.0mm
01:28 21.4 °F /  -5.9 °C 10.4 °F /  -12.0 °C 0in /  0.0hPa ENE 3.8mph /  6.1km/h 3.8mph /  6.1km/h 66% 0in /  0.0mm
01:33 21.4 °F /  -5.9 °C 10.4 °F /  -12.0 °C 30in /  1016.8hPa Calm   4.7mph /  7.6km/h 66% 0in /  0.0mm
01:38 21.6 °F /  -5.8 °C 10.4 °F /  -12.0 °C 30in /  1016.8hPa ENE 3.6mph /  5.8km/h 5.8mph /  9.3km/h 66% 0in /  0.0mm
01:43 21.4 °F /  -5.9 °C 10.4 °F /  -12.0 °C 30in /  1016.8hPa NE 3.6mph /  5.8km/h 5.8mph /  9.3km/h 66% 0in /  0.0mm
01:48 21.4 °F /  -5.9 °C 10.4 °F /  -12.0 °C 30in /  1016.8hPa ENE 2.2mph /  3.5km/h 4.9mph /  7.9km/h 66% 0in /  0.0mm
01:53 21.4 °F /  -5.9 °C 10.4 °F /  -12.0 °C 30in /  1016.8hPa Calm   5.4mph /  8.7km/h 66% 0in /  0.0mm
01:58 21.2 °F /  -6.0 °C 10.4 °F /  -12.0 °C 30in /  1016.8hPa Calm   5.4mph /  8.7km/h 67% 0in /  0.0mm
02:03 21.2 °F /  -6.0 °C 10.4 °F /  -12.0 °C 30in /  1016.8hPa NE 4mph /  6.4km/h 4.3mph /  6.9km/h 67% 0in /  0.0mm
02:09 21.2 °F /  -6.0 °C 10.4 °F /  -12.0 °C 30in /  1016.8hPa NE 4mph /  6.4km/h 4.9mph /  7.9km/h 67% 0in /  0.0mm
02:14 21.2 °F /  -6.0 °C 10.4 °F /  -12.0 °C 30in /  1016.8hPa NE 5.4mph /  8.7km/h 6mph /  9.7km/h 67% 0in /  0.0mm
02:19 21.2 °F /  -6.0 °C 10.4 °F /  -12.0 °C 30in /  1016.8hPa NE 4mph /  6.4km/h 6mph /  9.7km/h 68% 0in /  0.0mm
02:24 21 °F /  -6.1 °C 10.4 °F /  -12.0 °C 30in /  1016.8hPa NE 3.1mph /  5.0km/h 5.6mph /  9.0km/h 68% 0in /  0.0mm
02:29 21 °F /  -6.1 °C 10.4 °F /  -12.0 °C 30in /  1016.8hPa NE 4.3mph /  6.9km/h 5.6mph /  9.0km/h 68% 0in /  0.0mm
02:34 20.8 °F /  -6.2 °C 10.4 °F /  -12.0 °C 30in /  1016.8hPa Calm   4.7mph /  7.6km/h 68% 0in /  0.0mm
02:39 20.8 °F /  -6.2 °C 10.4 °F /  -12.0 °C 30in /  1016.8hPa Calm   4mph /  6.4km/h 68% 0in /  0.0mm
02:44 20.8 °F /  -6.2 °C 10.4 °F /  -12.0 °C 30in /  1016.1hPa ENE 3.6mph /  5.8km/h 4mph /  6.4km/h 68% 0in /  0.0mm
02:49 20.8 °F /  -6.2 °C 10.4 °F /  -12.0 °C 30in /  1016.1hPa Calm   4mph /  6.4km/h 68% 0in /  0.0mm
02:54 20.7 °F /  -6.3 °C 10.4 °F /  -12.0 °C 30in /  1016.1hPa Calm   4mph /  6.4km/h 67% 0in /  0.0mm
02:59 20.7 °F /  -6.3 °C 10.4 °F /  -12.0 °C 30in /  1016.8hPa ENE 3.1mph /  5.0km/h 3.4mph /  5.5km/h 67% 0in /  0.0mm
03:04 20.5 °F /  -6.4 °C 10.4 °F /  -12.0 °C 30in /  1016.8hPa ENE 2.9mph /  4.7km/h 3.8mph /  6.1km/h 67% 0in /  0.0mm
03:09 20.3 °F /  -6.5 °C 10.4 °F /  -12.0 °C 30in /  1016.8hPa Calm   4mph /  6.4km/h 67% 0in /  0.0mm
03:14 20.3 °F /  -6.5 °C 10.4 °F /  -12.0 °C 30.1in /  1018.2hPa NE 2.2mph /  3.5km/h 4mph /  6.4km/h 67% 0in /  0.0mm
03:19 20.3 °F /  -6.5 °C 10.4 °F /  -12.0 °C 30.1in /  1018.2hPa ENE 3.8mph /  6.1km/h 4.3mph /  6.9km/h 68% 0in /  0.0mm
03:24 20.1 °F /  -6.6 °C 10.4 °F /  -12.0 °C 30.1in /  1018.2hPa ENE 3.1mph /  5.0km/h 4.3mph /  6.9km/h 68% 0in /  0.0mm
03:29 19.9 °F /  -6.7 °C 10.4 °F /  -12.0 °C 30in /  1016.8hPa ENE 2.9mph /  4.7km/h 4.3mph /  6.9km/h 68% 0in /  0.0mm
03:34 19.9 °F /  -6.7 °C 10.4 °F /  -12.0 °C 30in /  1016.8hPa ENE 4mph /  6.4km/h 4mph /  6.4km/h 68% 0in /  0.0mm
03:39 19.9 °F /  -6.7 °C 10.4 °F /  -12.0 °C 30in /  1016.8hPa Calm   4mph /  6.4km/h 69% 0in /  0.0mm
03:44 19.9 °F /  -6.7 °C 10.4 °F /  -12.0 °C 30in /  1016.8hPa NE 3.4mph /  5.5km/h 4mph /  6.4km/h 69% 0in /  0.0mm
03:49 19.9 °F /  -6.7 °C 10.4 °F /  -12.0 °C 30in /  1016.8hPa NE 3.4mph /  5.5km/h 4mph /  6.4km/h 69% 0in /  0.0mm
03:54 19.9 °F /  -6.7 °C 10.4 °F /  -12.0 °C 30in /  1016.8hPa Calm   4mph /  6.4km/h 69% 0in /  0.0mm
04:00 19.9 °F /  -6.7 °C 10.4 °F /  -12.0 °C 30in /  1016.8hPa NE 2.5mph /  4.0km/h 4mph /  6.4km/h 69% 0in /  0.0mm
04:05 19.9 °F /  -6.7 °C 10.4 °F /  -12.0 °C 30in /  1016.8hPa East 3.4mph /  5.5km/h 6.5mph /  10.5km/h 69% 0in /  0.0mm
04:10 19.8 °F /  -6.8 °C 10.4 °F /  -12.0 °C 30in /  1016.8hPa Calm   6.5mph /  10.5km/h 69% 0in /  0.0mm
04:15 19.8 °F /  -6.8 °C 10.4 °F /  -12.0 °C 30in /  1016.8hPa East 3.4mph /  5.5km/h 4.3mph /  6.9km/h 69% 0in /  0.0mm
04:20 19.8 °F /  -6.8 °C 10.4 °F /  -12.0 °C 30in /  1016.8hPa Calm   4.3mph /  6.9km/h 69% 0in /  0.0mm
04:25 19.8 °F /  -6.8 °C 10.4 °F /  -12.0 °C 30in /  1016.8hPa ENE 2.7mph /  4.3km/h 3.4mph /  5.5km/h 69% 0in /  0.0mm
04:30 19.8 °F /  -6.8 °C 10.4 °F /  -12.0 °C 30in /  1016.1hPa Calm   2.9mph /  4.7km/h 69% 0in /  0.0mm
04:35 19.8 °F /  -6.8 °C 10.4 °F /  -12.0 °C 30in /  1016.1hPa Calm   2.9mph /  4.7km/h 69% 0in /  0.0mm
04:40 19.8 °F /  -6.8 °C 10.4 °F /  -12.0 °C 30in /  1016.1hPa Calm   2mph /  3.2km/h 69% 0in /  0.0mm
04:45 19.6 °F /  -6.9 °C 10.4 °F /  -12.0 °C 30in /  1016.8hPa Calm   3.1mph /  5.0km/h 69% 0in /  0.0mm
04:50 19.6 °F /  -6.9 °C 10.4 °F /  -12.0 °C 30in /  1016.8hPa NE 1.3mph /  2.1km/h 3.8mph /  6.1km/h 69% 0in /  0.0mm
04:55 19.6 °F /  -6.9 °C 10.4 °F /  -12.0 °C 30in /  1016.8hPa Calm   4mph /  6.4km/h 69% 0in /  0.0mm
05:00 19.4 °F /  -7.0 °C 10.4 °F /  -12.0 °C 30in /  1016.8hPa Calm   4mph /  6.4km/h 70% 0in /  0.0mm
05:05 19.4 °F /  -7.0 °C 10.4 °F /  -12.0 °C 30in /  1016.8hPa East 3.4mph /  5.5km/h 5.4mph /  8.7km/h 70% 0in /  0.0mm
05:10 19.2 °F /  -7.1 °C 10.4 °F /  -12.0 °C 30in /  1016.8hPa East 3.4mph /  5.5km/h 5.4mph /  8.7km/h 70% 0in /  0.0mm
05:15 19.2 °F /  -7.1 °C 10.4 °F /  -12.0 °C 30in /  1016.8hPa Calm   4.9mph /  7.9km/h 70% 0in /  0.0mm
05:20 19.2 °F /  -7.1 °C 10.4 °F /  -12.0 °C 30in /  1016.8hPa Calm   4.9mph /  7.9km/h 70% 0in /  0.0mm
05:25 19.2 °F /  -7.1 °C 10.4 °F /  -12.0 °C 30in /  1016.8hPa NE 2.5mph /  4.0km/h 4.7mph /  7.6km/h 70% 0in /  0.0mm
05:30 19 °F /  -7.2 °C 10.4 °F /  -12.0 °C 30in /  1016.8hPa ENE 5.6mph /  9.0km/h 5.6mph /  9.0km/h 71% 0in /  0.0mm
05:35 19 °F /  -7.2 °C 10.4 °F /  -12.0 °C 30in /  1016.8hPa ENE 4.9mph /  7.9km/h 6.3mph /  10.1km/h 71% 0in /  0.0mm
05:40 19 °F /  -7.2 °C 10.4 °F /  -12.0 °C 30in /  1016.8hPa ENE 3.6mph /  5.8km/h 6.3mph /  10.1km/h 72% 0in /  0.0mm
05:45 19 °F /  -7.2 °C 10.4 °F /  -12.0 °C 30in /  1016.8hPa ENE 4mph /  6.4km/h 6mph /  9.7km/h 72% 0in /  0.0mm
05:50 19 °F /  -7.2 °C 10.4 °F /  -12.0 °C 30in /  1016.8hPa ENE 4.3mph /  6.9km/h 5.6mph /  9.0km/h 72% 0in /  0.0mm
05:55 19 °F /  -7.2 °C 10.4 °F /  -12.0 °C 30in /  1016.8hPa Calm   5.4mph /  8.7km/h 72% 0in /  0.0mm
06:01 19 °F /  -7.2 °C 10.4 °F /  -12.0 °C 30in /  1016.8hPa ENE 3.4mph /  5.5km/h 5.4mph /  8.7km/h 71% 0in /  0.0mm
06:06 19 °F /  -7.2 °C 10.4 °F /  -12.0 °C 30in /  1016.8hPa ENE 3.8mph /  6.1km/h 6mph /  9.7km/h 72% 0in /  0.0mm
06:11 19.2 °F /  -7.1 °C 10.4 °F /  -12.0 °C 30in /  1016.8hPa ENE 4.9mph /  7.9km/h 7.2mph /  11.6km/h 72% 0in /  0.0mm
06:16 19.4 °F /  -7.0 °C 10.4 °F /  -12.0 °C 30in /  1016.8hPa NE 5.4mph /  8.7km/h 7.2mph /  11.6km/h 72% 0in /  0.0mm
06:21 19.6 °F /  -6.9 °C 10.4 °F /  -12.0 °C 30in /  1016.8hPa NE 5.8mph /  9.3km/h 6mph /  9.7km/h 72% 0in /  0.0mm
06:26 19.6 °F /  -6.9 °C 10.4 °F /  -12.0 °C 30in /  1016.8hPa ENE 5.4mph /  8.7km/h 6mph /  9.7km/h 72% 0in /  0.0mm
06:31 19.8 °F /  -6.8 °C 10.4 °F /  -12.0 °C 30in /  1016.8hPa East 6.5mph /  10.5km/h 6.5mph /  10.5km/h 71% 0in /  0.0mm
06:36 19.8 °F /  -6.8 °C 10.4 °F /  -12.0 °C 30in /  1016.8hPa NE 4.3mph /  6.9km/h 6.5mph /  10.5km/h 71% 0in /  0.0mm
06:41 19.8 °F /  -6.8 °C 10.4 °F /  -12.0 °C 30in /  1016.8hPa NE 5.8mph /  9.3km/h 8.1mph /  13.0km/h 71% 0in /  0.0mm
06:46 19.8 °F /  -6.8 °C 10.4 °F /  -12.0 °C 30in /  1016.8hPa ENE 5.4mph /  8.7km/h 8.1mph /  13.0km/h 71% 0in /  0.0mm
06:51 19.6 °F /  -6.9 °C 10.4 °F /  -12.0 °C 30in /  1016.8hPa ENE 4.3mph /  6.9km/h 6mph /  9.7km/h 71% 0in /  0.0mm
06:56 19.6 °F /  -6.9 °C 10.4 °F /  -12.0 °C 30in /  1016.8hPa ENE 4mph /  6.4km/h 6mph /  9.7km/h 71% 0in /  0.0mm
07:01 19.6 °F /  -6.9 °C 10.4 °F /  -12.0 °C 30in /  1016.1hPa East 5.4mph /  8.7km/h 6.3mph /  10.1km/h 71% 0in /  0.0mm
07:06 19.4 °F /  -7.0 °C 10.4 °F /  -12.0 °C 30in /  1016.1hPa ENE 3.8mph /  6.1km/h 6.3mph /  10.1km/h 71% 0in /  0.0mm
07:11 19.4 °F /  -7.0 °C 10.4 °F /  -12.0 °C 30in /  1016.1hPa ENE 4.3mph /  6.9km/h 6.3mph /  10.1km/h 71% 0in /  0.0mm
07:16 19.2 °F /  -7.1 °C 10.4 °F /  -12.0 °C 30in /  1016.8hPa ENE 4.9mph /  7.9km/h 6.3mph /  10.1km/h 71% 0in /  0.0mm
07:21 19.2 °F /  -7.1 °C 10.4 °F /  -12.0 °C 30in /  1016.8hPa East 5.6mph /  9.0km/h 5.6mph /  9.0km/h 71% 0in /  0.0mm
07:26 19 °F /  -7.2 °C 10.4 °F /  -12.0 °C 30in /  1016.8hPa ENE 4.5mph /  7.2km/h 7.8mph /  12.6km/h 72% 0in /  0.0mm
07:32 19 °F /  -7.2 °C 10.4 °F /  -12.0 °C 30in /  1016.8hPa ENE 3.8mph /  6.1km/h 7.8mph /  12.6km/h 72% 0in /  0.0mm
07:37 19 °F /  -7.2 °C 10.4 °F /  -12.0 °C 30in /  1016.8hPa East 6.3mph /  10.1km/h 6.3mph /  10.1km/h 72% 0in /  0.0mm
07:42 19 °F /  -7.2 °C 10.4 °F /  -12.0 °C 30in /  1016.8hPa NE 4.9mph /  7.9km/h 6.5mph /  10.5km/h 72% 0in /  0.0mm
07:47 19 °F /  -7.2 °C 10.4 °F /  -12.0 °C 30in /  1016.8hPa Calm   6.5mph /  10.5km/h 72% 0in /  0.0mm
07:52 19 °F /  -7.2 °C 10.4 °F /  -12.0 °C 30in /  1016.8hPa ENE 3.4mph /  5.5km/h 5.8mph /  9.3km/h 72% 0in /  0.0mm
07:57 19.2 °F /  -7.1 °C 10.4 °F /  -12.0 °C 30in /  1016.8hPa East 2.9mph /  4.7km/h 6.3mph /  10.1km/h 72% 0in /  0.0mm
08:02 19.4 °F /  -7.0 °C 10.4 °F /  -12.0 °C 30in /  1016.8hPa ENE 6.3mph /  10.1km/h 7.4mph /  11.9km/h 73% 0in /  0.0mm
08:07 19.6 °F /  -6.9 °C 10.4 °F /  -12.0 °C 30in /  1016.8hPa NE 6.3mph /  10.1km/h 7.4mph /  11.9km/h 73% 0in /  0.0mm
08:12 19.8 °F /  -6.8 °C 10.4 °F /  -12.0 °C 30in /  1016.8hPa East 6.3mph /  10.1km/h 7.2mph /  11.6km/h 73% 0in /  0.0mm
08:17 20.1 °F /  -6.6 °C 12.2 °F /  -11.0 °C 30in /  1016.8hPa NE 6.3mph /  10.1km/h 7.8mph /  12.6km/h 72% 0in /  0.0mm
08:22 20.3 °F /  -6.5 °C 12.2 °F /  -11.0 °C 30in /  1016.8hPa ENE 6.9mph /  11.1km/h 9.6mph /  15.4km/h 72% 0in /  0.0mm
08:27 20.7 °F /  -6.3 °C 12.2 °F /  -11.0 °C 30in /  1016.8hPa ENE 4.9mph /  7.9km/h 11.2mph /  18.0km/h 71% 0in /  0.0mm
08:32 20.8 °F /  -6.2 °C 12.2 °F /  -11.0 °C 30in /  1016.1hPa ENE 8.5mph /  13.7km/h 11.2mph /  18.0km/h 70% 0in /  0.0mm
08:37 21.2 °F /  -6.0 °C 10.4 °F /  -12.0 °C 30in /  1016.1hPa ENE 7.4mph /  11.9km/h 9.6mph /  15.4km/h 69% 0in /  0.0mm
08:42 21.4 °F /  -5.9 °C 10.4 °F /  -12.0 °C 30in /  1016.1hPa East 10.7mph /  17.2km/h 11.2mph /  18.0km/h 67% 0in /  0.0mm
08:47 21.6 °F /  -5.8 °C 10.4 °F /  -12.0 °C 30in /  1016.1hPa East 6.3mph /  10.1km/h 11.2mph /  18.0km/h 66% 0in /  0.0mm
08:52 21.9 °F /  -5.6 °C 10.4 °F /  -12.0 °C 30in /  1016.1hPa ENE 1.1mph /  1.8km/h 11mph /  17.7km/h 65% 0in /  0.0mm
08:57 22.1 °F /  -5.5 °C 10.4 °F /  -12.0 °C 30in /  1016.1hPa ENE 7.6mph /  12.2km/h 10.7mph /  17.2km/h 64% 0in /  0.0mm
09:02 22.5 °F /  -5.3 °C 10.4 °F /  -12.0 °C 30in /  1016.8hPa ENE 7.6mph /  12.2km/h 10.7mph /  17.2km/h 63% 0in /  0.0mm
09:07 22.6 °F /  -5.2 °C 10.4 °F /  -12.0 °C 30in /  1016.8hPa ENE 6.3mph /  10.1km/h 10.5mph /  16.9km/h 61% 0in /  0.0mm
09:12 22.8 °F /  -5.1 °C 10.4 °F /  -12.0 °C 30in /  1016.8hPa East 7.4mph /  11.9km/h 12.5mph /  20.1km/h 60% 0in /  0.0mm
09:17 23 °F /  -5.0 °C 8.6 °F /  -13.0 °C 30in /  1016.8hPa SSE 7.2mph /  11.6km/h 13.2mph /  21.2km/h 58% 0in /  0.0mm
09:22 23.2 °F /  -4.9 °C 10.4 °F /  -12.0 °C 30in /  1016.8hPa East 6.3mph /  10.1km/h 13.2mph /  21.2km/h 58% 0in /  0.0mm
09:27 23.4 °F /  -4.8 °C 8.6 °F /  -13.0 °C 30in /  1016.8hPa NE 9.8mph /  15.8km/h 12.8mph /  20.6km/h 56% 0in /  0.0mm
09:32 23.5 °F /  -4.7 °C 8.6 °F /  -13.0 °C 30in /  1016.1hPa East 7.8mph /  12.6km/h 12.8mph /  20.6km/h 56% 0in /  0.0mm
09:37 23.7 °F /  -4.6 °C 8.6 °F /  -13.0 °C 30in /  1016.1hPa East 6.3mph /  10.1km/h 12.8mph /  20.6km/h 55% 0in /  0.0mm
09:42 23.9 °F /  -4.5 °C 8.6 °F /  -13.0 °C 30in /  1016.1hPa NE 7.8mph /  12.6km/h 11.9mph /  19.1km/h 54% 0in /  0.0mm
09:47 23.9 °F /  -4.5 °C 8.6 °F /  -13.0 °C 30in /  1016.8hPa East 4.9mph /  7.9km/h 15.4mph /  24.8km/h 54% 0in /  0.0mm
09:52 24.1 °F /  -4.4 °C 8.6 °F /  -13.0 °C 30in /  1016.8hPa East 10.1mph /  16.3km/h 15.4mph /  24.8km/h 54% 0in /  0.0mm
09:58 24.4 °F /  -4.2 °C 10.4 °F /  -12.0 °C 30in /  1016.8hPa East 9.4mph /  15.1km/h 13mph /  20.9km/h 54% 0in /  0.0mm
10:03 24.4 °F /  -4.2 °C 10.4 °F /  -12.0 °C 30in /  1016.8hPa East 10.7mph /  17.2km/h 13mph /  20.9km/h 54% 0in /  0.0mm
10:08 24.6 °F /  -4.1 °C 8.6 °F /  -13.0 °C 30in /  1016.8hPa ESE 7.6mph /  12.2km/h 14.8mph /  23.8km/h 52% 0in /  0.0mm
10:13 24.8 °F /  -4.0 °C 8.6 °F /  -13.0 °C 30in /  1016.8hPa East 12.8mph /  20.6km/h 14.8mph /  23.8km/h 52% 0in /  0.0mm
10:18 25 °F /  -3.9 °C 8.6 °F /  -13.0 °C 30in /  1016.8hPa East 6.5mph /  10.5km/h 13mph /  20.9km/h 52% 0in /  0.0mm
10:23 25.3 °F /  -3.7 °C 10.4 °F /  -12.0 °C 30in /  1016.8hPa East 9.8mph /  15.8km/h 14.8mph /  23.8km/h 52% 0in /  0.0mm
10:28 25.3 °F /  -3.7 °C 8.6 °F /  -13.0 °C 30in /  1016.8hPa East 11.2mph /  18.0km/h 14.8mph /  23.8km/h 51% 0in /  0.0mm
10:33 25.7 °F /  -3.5 °C 8.6 °F /  -13.0 °C 30in /  1016.1hPa NE 7.4mph /  11.9km/h 12.1mph /  19.5km/h 51% 0in /  0.0mm
10:38 26.1 °F /  -3.3 °C 10.4 °F /  -12.0 °C 30in /  1016.1hPa ENE 7.6mph /  12.2km/h 13mph /  20.9km/h 51% 0in /  0.0mm
10:43 26.1 °F /  -3.3 °C 8.6 °F /  -13.0 °C 30in /  1016.1hPa East 12.8mph /  20.6km/h 14.3mph /  23.0km/h 49% 0in /  0.0mm
10:48 26.4 °F /  -3.1 °C 8.6 °F /  -13.0 °C 30in /  1016.8hPa NE 10.1mph /  16.3km/h 14.3mph /  23.0km/h 49% 0in /  0.0mm
10:53 26.4 °F /  -3.1 °C 8.6 °F /  -13.0 °C 30in /  1016.8hPa ESE 12.1mph /  19.5km/h 16.1mph /  25.9km/h 47% 0in /  0.0mm
10:58 26.8 °F /  -2.9 °C 8.6 °F /  -13.0 °C 30in /  1016.8hPa ESE 12.8mph /  20.6km/h 16.1mph /  25.9km/h 47% 0in /  0.0mm
11:03 27 °F /  -2.8 °C 8.6 °F /  -13.0 °C 30in /  1016.8hPa NE 10.5mph /  16.9km/h 15.2mph /  24.5km/h 46% 0in /  0.0mm
11:08 27.1 °F /  -2.7 °C 8.6 °F /  -13.0 °C 30in /  1016.8hPa East 9.8mph /  15.8km/h 12.8mph /  20.6km/h 46% 0in /  0.0mm
11:13 27.5 °F /  -2.5 °C 8.6 °F /  -13.0 °C 30in /  1016.8hPa East 7.6mph /  12.2km/h 13.9mph /  22.4km/h 46% 0in /  0.0mm
11:18 27.7 °F /  -2.4 °C 8.6 °F /  -13.0 °C 30in /  1016.8hPa ENE 10.1mph /  16.3km/h 14.3mph /  23.0km/h 45% 0in /  0.0mm
11:23 27.7 °F /  -2.4 °C 8.6 °F /  -13.0 °C 30in /  1016.8hPa East 10.5mph /  16.9km/h 14.3mph /  23.0km/h 45% 0in /  0.0mm
11:28 27.9 °F /  -2.3 °C 8.6 °F /  -13.0 °C 30in /  1016.8hPa East 13.2mph /  21.2km/h 19.5mph /  31.4km/h 45% 0in /  0.0mm
11:33 27.9 °F /  -2.3 °C 8.6 °F /  -13.0 °C 30in /  1016.8hPa ESE 10.7mph /  17.2km/h 19.5mph /  31.4km/h 45% 0in /  0.0mm
11:38 28.2 °F /  -2.1 °C 8.6 °F /  -13.0 °C 30in /  1016.8hPa ENE 15.2mph /  24.5km/h 15.4mph /  24.8km/h 45% 0in /  0.0mm
11:43 28.2 °F /  -2.1 °C 8.6 °F /  -13.0 °C 30in /  1016.8hPa ENE 12.1mph /  19.5km/h 17.7mph /  28.5km/h 44% 0in /  0.0mm
11:48 28.6 °F /  -1.9 °C 8.6 °F /  -13.0 °C 30in /  1016.8hPa ENE 10.3mph /  16.6km/h 17.7mph /  28.5km/h 44% 0in /  0.0mm
11:54 28.9 °F /  -1.7 °C 8.6 °F /  -13.0 °C 30in /  1016.8hPa ESE 12.3mph /  19.8km/h 16.6mph /  26.7km/h 43% 0in /  0.0mm
11:59 28.9 °F /  -1.7 °C 8.6 °F /  -13.0 °C 30in /  1016.1hPa ENE 8.1mph /  13.0km/h 17.7mph /  28.5km/h 43% 0in /  0.0mm
12:04 29.1 °F /  -1.6 °C 8.6 °F /  -13.0 °C 30in /  1016.1hPa NNE 17.9mph /  28.8km/h 17.9mph /  28.8km/h 43% 0in /  0.0mm
12:09 29.1 °F /  -1.6 °C 8.6 °F /  -13.0 °C 30in /  1016.1hPa East 14.1mph /  22.7km/h 24.2mph /  38.9km/h 42% 0in /  0.0mm
12:14 29.5 °F /  -1.4 °C 8.6 °F /  -13.0 °C 30in /  1016.1hPa ESE 10.7mph /  17.2km/h 24.2mph /  38.9km/h 42% 0in /  0.0mm
12:19 29.5 °F /  -1.4 °C 8.6 °F /  -13.0 °C 30in /  1016.1hPa East 7.8mph /  12.6km/h 18.6mph /  29.9km/h 41% 0in /  0.0mm
12:24 29.5 °F /  -1.4 °C 8.6 °F /  -13.0 °C 30in /  1016.1hPa ENE 17.7mph /  28.5km/h 18.6mph /  29.9km/h 41% 0in /  0.0mm
12:29 29.5 °F /  -1.4 °C 8.6 °F /  -13.0 °C 30in /  1015.1hPa East 11mph /  17.7km/h 17.7mph /  28.5km/h 41% 0in /  0.0mm
12:34 29.5 °F /  -1.4 °C 8.6 °F /  -13.0 °C 30in /  1015.1hPa ENE 13.2mph /  21.2km/h 18.1mph /  29.1km/h 41% 0in /  0.0mm
12:39 29.5 °F /  -1.4 °C 8.6 °F /  -13.0 °C 30in /  1015.1hPa ENE 11mph /  17.7km/h 18.1mph /  29.1km/h 41% 0in /  0.0mm
12:44 29.3 °F /  -1.5 °C 6.8 °F /  -14.0 °C 30in /  1015.1hPa East 15.4mph /  24.8km/h 23mph /  37.0km/h 41% 0in /  0.0mm
12:49 29.5 °F /  -1.4 °C 8.6 °F /  -13.0 °C 30in /  1015.1hPa NE 15.2mph /  24.5km/h 23mph /  37.0km/h 41% 0in /  0.0mm
12:54 29.7 °F /  -1.3 °C 8.6 °F /  -13.0 °C 30in /  1015.1hPa ENE 9.4mph /  15.1km/h 20.8mph /  33.5km/h 41% 0in /  0.0mm
12:59 29.7 °F /  -1.3 °C 6.8 °F /  -14.0 °C 30in /  1015.1hPa East 14.3mph /  23.0km/h 20.1mph /  32.3km/h 40% 0in /  0.0mm
13:04 29.8 °F /  -1.2 °C 6.8 °F /  -14.0 °C 30in /  1015.1hPa East 19.5mph /  31.4km/h 20.1mph /  32.3km/h 40% 0in /  0.0mm
13:09 29.7 °F /  -1.3 °C 6.8 °F /  -14.0 °C 30in /  1015.1hPa ESE 12.8mph /  20.6km/h 19.5mph /  31.4km/h 39% 0in /  0.0mm
13:15 29.8 °F /  -1.2 °C 6.8 °F /  -14.0 °C 29.9in /  1014.1hPa ENE 10.1mph /  16.3km/h 22.4mph /  36.0km/h 39% 0in /  0.0mm
13:20 30 °F /  -1.1 °C 6.8 °F /  -14.0 °C 29.9in /  1014.1hPa ENE 13.4mph /  21.6km/h 22.4mph /  36.0km/h 38% 0in /  0.0mm
13:25 30.2 °F /  -1.0 °C 6.8 °F /  -14.0 °C 29.9in /  1014.1hPa SE 12.8mph /  20.6km/h 22.4mph /  36.0km/h 38% 0in /  0.0mm
13:30 30.6 °F /  -0.8 °C 6.8 °F /  -14.0 °C 29.9in /  1014.1hPa ENE 12.3mph /  19.8km/h 19.2mph /  30.9km/h 37% 0in /  0.0mm
13:35 30.6 °F /  -0.8 °C 5 °F /  -15.0 °C 29.9in /  1014.1hPa ENE 14.5mph /  23.3km/h 24.2mph /  38.9km/h 36% 0in /  0.0mm
13:40 30.7 °F /  -0.7 °C 6.8 °F /  -14.0 °C 29.9in /  1014.1hPa East 8.1mph /  13.0km/h 24.2mph /  38.9km/h 37% 0in /  0.0mm
13:45 31.1 °F /  -0.5 °C 6.8 °F /  -14.0 °C 30in /  1015.1hPa ENE 17.9mph /  28.8km/h 18.1mph /  29.1km/h 37% 0in /  0.0mm
13:50 31.1 °F /  -0.5 °C 6.8 °F /  -14.0 °C 30in /  1015.1hPa NE 8.1mph /  13.0km/h 19.9mph /  32.0km/h 36% 0in /  0.0mm
13:55 31.3 °F /  -0.4 °C 6.8 °F /  -14.0 °C 30in /  1015.1hPa ENE 8.7mph /  14.0km/h 19.9mph /  32.0km/h 36% 0in /  0.0mm
14:00 31.1 °F /  -0.5 °C 5 °F /  -15.0 °C 30in /  1015.1hPa East 12.5mph /  20.1km/h 17.2mph /  27.7km/h 35% 0in /  0.0mm
14:05 31.1 °F /  -0.5 °C 5 °F /  -15.0 °C 30in /  1015.1hPa ENE 15.4mph /  24.8km/h 19.9mph /  32.0km/h 34% 0in /  0.0mm
14:10 30.9 °F /  -0.6 °C 5 °F /  -15.0 °C 30in /  1015.1hPa East 15.4mph /  24.8km/h 19.9mph /  32.0km/h 34% 0in /  0.0mm
14:15 30.9 °F /  -0.6 °C 5 °F /  -15.0 °C 30in /  1015.1hPa ENE 13mph /  20.9km/h 19.9mph /  32.0km/h 34% 0in /  0.0mm
14:20 30.7 °F /  -0.7 °C 5 °F /  -15.0 °C 30in /  1015.1hPa ESE 7.8mph /  12.6km/h 19.5mph /  31.4km/h 34% 0in /  0.0mm
14:25 31.1 °F /  -0.5 °C 5 °F /  -15.0 °C 30in /  1015.1hPa East 15.2mph /  24.5km/h 19.5mph /  31.4km/h 34% 0in /  0.0mm
14:30 31.1 °F /  -0.5 °C 5 °F /  -15.0 °C 29.9in /  1014.1hPa ENE 13mph /  20.9km/h 19.7mph /  31.7km/h 34% 0in /  0.0mm
14:35 31.3 °F /  -0.4 °C 5 °F /  -15.0 °C 29.9in /  1014.1hPa East 13mph /  20.9km/h 19.7mph /  31.7km/h 34% 0in /  0.0mm
14:40 31.1 °F /  -0.5 °C 5 °F /  -15.0 °C 29.9in /  1014.1hPa ENE 13.2mph /  21.2km/h 21.5mph /  34.6km/h 33% 0in /  0.0mm
14:45 31.3 °F /  -0.4 °C 5 °F /  -15.0 °C 29.9in /  1014.1hPa ESE 13.2mph /  21.2km/h 21.5mph /  34.6km/h 34% 0in /  0.0mm
14:50 31.1 °F /  -0.5 °C 5 °F /  -15.0 °C 29.9in /  1014.1hPa East 16.3mph /  26.2km/h 20.8mph /  33.5km/h 33% 0in /  0.0mm
14:55 31.3 °F /  -0.4 °C 5 °F /  -15.0 °C 29.9in /  1014.1hPa NE 9.8mph /  15.8km/h 20.8mph /  33.5km/h 34% 0in /  0.0mm
15:01 31.1 °F /  -0.5 °C 5 °F /  -15.0 °C 29.9in /  1014.1hPa ESE 17.7mph /  28.5km/h 24.6mph /  39.6km/h 33% 0in /  0.0mm
15:06 31.3 °F /  -0.4 °C 5 °F /  -15.0 °C 29.9in /  1014.1hPa ESE 11mph /  17.7km/h 24.6mph /  39.6km/h 34% 0in /  0.0mm
15:11 31.1 °F /  -0.5 °C 5 °F /  -15.0 °C 29.9in /  1014.1hPa ESE 21mph /  33.8km/h 21mph /  33.8km/h 33% 0in /  0.0mm
15:16 31.1 °F /  -0.5 °C 5 °F /  -15.0 °C 29.9in /  1014.1hPa East 13mph /  20.9km/h 22.1mph /  35.6km/h 33% 0in /  0.0mm
15:21 31.3 °F /  -0.4 °C 5 °F /  -15.0 °C 29.9in /  1014.1hPa East 8.5mph /  13.7km/h 22.1mph /  35.6km/h 33% 0in /  0.0mm
15:26 31.3 °F /  -0.4 °C 5 °F /  -15.0 °C 29.9in /  1014.1hPa East 8.1mph /  13.0km/h 20.1mph /  32.3km/h 33% 0in /  0.0mm
15:31 31.1 °F /  -0.5 °C 3.2 °F /  -16.0 °C 29.9in /  1013.1hPa East 15.9mph /  25.6km/h 24.2mph /  38.9km/h 32% 0in /  0.0mm
15:36 31.1 °F /  -0.5 °C 5 °F /  -15.0 °C 29.9in /  1013.1hPa East 10.1mph /  16.3km/h 24.2mph /  38.9km/h 33% 0in /  0.0mm
15:41 31.1 °F /  -0.5 °C 5 °F /  -15.0 °C 29.9in /  1013.1hPa East 15.2mph /  24.5km/h 23mph /  37.0km/h 33% 0in /  0.0mm
15:46 31.1 °F /  -0.5 °C 5 °F /  -15.0 °C 29.9in /  1013.1hPa ENE 12.8mph /  20.6km/h 19.7mph /  31.7km/h 33% 0in /  0.0mm
15:51 31.1 °F /  -0.5 °C 5 °F /  -15.0 °C 29.9in /  1013.1hPa ENE 17.7mph /  28.5km/h 17.9mph /  28.8km/h 33% 0in /  0.0mm
15:56 31.1 °F /  -0.5 °C 5 °F /  -15.0 °C 29.9in /  1013.1hPa ENE 15.4mph /  24.8km/h 19.5mph /  31.4km/h 34% 0in /  0.0mm
16:01 31.1 °F /  -0.5 °C 5 °F /  -15.0 °C 29.9in /  1013.1hPa ENE 14.8mph /  23.8km/h 19.5mph /  31.4km/h 34% 0in /  0.0mm
16:06 31.1 °F /  -0.5 °C 5 °F /  -15.0 °C 29.9in /  1013.1hPa East 12.1mph /  19.5km/h 22.6mph /  36.4km/h 34% 0in /  0.0mm
16:11 31.3 °F /  -0.4 °C 5 °F /  -15.0 °C 29.9in /  1013.1hPa NE 8.7mph /  14.0km/h 22.6mph /  36.4km/h 34% 0in /  0.0mm
16:16 31.1 °F /  -0.5 °C 5 °F /  -15.0 °C 29.9in /  1013.1hPa East 8.7mph /  14.0km/h 19.5mph /  31.4km/h 34% 0in /  0.0mm
16:21 30.7 °F /  -0.7 °C 5 °F /  -15.0 °C 29.9in /  1013.1hPa ENE 14.8mph /  23.8km/h 19.5mph /  31.4km/h 33% 0in /  0.0mm
16:26 30.6 °F /  -0.8 °C 5 °F /  -15.0 °C 29.9in /  1013.1hPa East 17.4mph /  28.0km/h 17.4mph /  28.0km/h 34% 0in /  0.0mm
16:31 30.4 °F /  -0.9 °C 5 °F /  -15.0 °C 29.9in /  1013.1hPa East 10.5mph /  16.9km/h 19.5mph /  31.4km/h 34% 0in /  0.0mm
16:36 30.4 °F /  -0.9 °C 5 °F /  -15.0 °C 29.9in /  1013.1hPa NE 13.9mph /  22.4km/h 19.5mph /  31.4km/h 34% 0in /  0.0mm
16:41 30.2 °F /  -1.0 °C 5 °F /  -15.0 °C 29.9in /  1013.1hPa East 10.3mph /  16.6km/h 18.6mph /  29.9km/h 35% 0in /  0.0mm
16:46 30.2 °F /  -1.0 °C 5 °F /  -15.0 °C 29.9in /  1013.1hPa ENE 13mph /  20.9km/h 18.6mph /  29.9km/h 35% 0in /  0.0mm
16:51 30 °F /  -1.1 °C 5 °F /  -15.0 °C 29.9in /  1013.1hPa NNE 12.5mph /  20.1km/h 19.7mph /  31.7km/h 34% 0in /  0.0mm
16:56 29.7 °F /  -1.3 °C 3.2 °F /  -16.0 °C 29.9in /  1013.1hPa ENE 11.9mph /  19.1km/h 19.7mph /  31.7km/h 34% 0in /  0.0mm
17:01 29.5 °F /  -1.4 °C 3.2 °F /  -16.0 °C 29.9in /  1012.1hPa ENE 15.2mph /  24.5km/h 19.7mph /  31.7km/h 34% 0in /  0.0mm
17:07 29.5 °F /  -1.4 °C 3.2 °F /  -16.0 °C 29.9in /  1012.1hPa East 10.3mph /  16.6km/h 17.2mph /  27.7km/h 34% 0in /  0.0mm
17:12 29.5 °F /  -1.4 °C 5 °F /  -15.0 °C 29.9in /  1012.1hPa East 14.8mph /  23.8km/h 17.2mph /  27.7km/h 35% 0in /  0.0mm
17:17 29.3 °F /  -1.5 °C 3.2 °F /  -16.0 °C 29.9in /  1011.1hPa NE 13.9mph /  22.4km/h 17.4mph /  28.0km/h 35% 0in /  0.0mm
17:22 28.9 °F /  -1.7 °C 3.2 °F /  -16.0 °C 29.9in /  1011.1hPa East 15.2mph /  24.5km/h 19.5mph /  31.4km/h 34% 0in /  0.0mm
17:27 28.6 °F /  -1.9 °C 3.2 °F /  -16.0 °C 29.9in /  1011.1hPa NE 16.1mph /  25.9km/h 20.4mph /  32.8km/h 34% 0in /  0.0mm
17:32 28.4 °F /  -2.0 °C 3.2 °F /  -16.0 °C 29.9in /  1011.1hPa ENE 11mph /  17.7km/h 20.4mph /  32.8km/h 34% 0in /  0.0mm
17:40 28.2 °F /  -2.1 °C 3.2 °F /  -16.0 °C 29.9in /  1011.1hPa ENE 12.8mph /  20.6km/h 17mph /  27.4km/h 35% 0in /  0.0mm
17:45 28.2 °F /  -2.1 °C 3.2 °F /  -16.0 °C 29.9in /  1011.1hPa NE 11mph /  17.7km/h 17mph /  27.4km/h 36% 0in /  0.0mm
17:50 28.2 °F /  -2.1 °C 3.2 °F /  -16.0 °C 29.9in /  1011.1hPa ENE 17.4mph /  28.0km/h 19.2mph /  30.9km/h 36% 0in /  0.0mm
17:55 28 °F /  -2.2 °C 3.2 °F /  -16.0 °C 29.9in /  1011.1hPa East 10.3mph /  16.6km/h 19.2mph /  30.9km/h 36% 0in /  0.0mm
18:00 27.9 °F /  -2.3 °C 3.2 °F /  -16.0 °C 29.9in /  1011.1hPa ENE 11mph /  17.7km/h 15.4mph /  24.8km/h 36% 0in /  0.0mm
18:05 27.9 °F /  -2.3 °C 3.2 °F /  -16.0 °C 29.9in /  1011.1hPa ENE 14.8mph /  23.8km/h 15.4mph /  24.8km/h 37% 0in /  0.0mm
18:10 27.7 °F /  -2.4 °C 3.2 °F /  -16.0 °C 29.9in /  1011.1hPa East 15.7mph /  25.3km/h 17mph /  27.4km/h 37% 0in /  0.0mm
18:15 27.5 °F /  -2.5 °C 3.2 °F /  -16.0 °C 29.8in /  1010.0hPa East 14.5mph /  23.3km/h 17mph /  27.4km/h 37% 0in /  0.0mm
18:20 27.3 °F /  -2.6 °C 3.2 °F /  -16.0 °C 29.8in /  1010.0hPa East 13.2mph /  21.2km/h 16.8mph /  27.0km/h 38% 0in /  0.0mm
18:25 27.1 °F /  -2.7 °C 3.2 °F /  -16.0 °C 29.8in /  1010.0hPa ENE 11mph /  17.7km/h 14.5mph /  23.3km/h 38% 0in /  0.0mm
18:30 27 °F /  -2.8 °C 3.2 °F /  -16.0 °C 29.9in /  1011.1hPa ENE 11.9mph /  19.1km/h 19mph /  30.6km/h 38% 0in /  0.0mm
18:35 26.8 °F /  -2.9 °C 3.2 °F /  -16.0 °C 29.9in /  1011.1hPa NE 8.1mph /  13.0km/h 19mph /  30.6km/h 38% 0in /  0.0mm
18:40 26.8 °F /  -2.9 °C 3.2 °F /  -16.0 °C 29.9in /  1011.1hPa East 13.2mph /  21.2km/h 17.7mph /  28.5km/h 38% 0in /  0.0mm
18:45 26.6 °F /  -3.0 °C 5 °F /  -15.0 °C 29.9in /  1011.1hPa ENE 8.5mph /  13.7km/h 17.7mph /  28.5km/h 39% 0in /  0.0mm
18:50 26.4 °F /  -3.1 °C 5 °F /  -15.0 °C 29.9in /  1011.1hPa NE 17.2mph /  27.7km/h 19.9mph /  32.0km/h 39% 0in /  0.0mm
18:55 26.4 °F /  -3.1 °C 5 °F /  -15.0 °C 29.9in /  1011.1hPa ENE 10.3mph /  16.6km/h 19.9mph /  32.0km/h 39% 0in /  0.0mm
19:00 26.2 °F /  -3.2 °C 3.2 °F /  -16.0 °C 29.9in /  1011.1hPa East 10.7mph /  17.2km/h 19.2mph /  30.9km/h 39% 0in /  0.0mm
19:05 26.2 °F /  -3.2 °C 3.2 °F /  -16.0 °C 29.9in /  1011.1hPa East 14.5mph /  23.3km/h 16.3mph /  26.2km/h 39% 0in /  0.0mm
19:10 26.2 °F /  -3.2 °C 3.2 °F /  -16.0 °C 29.9in /  1011.1hPa ENE 13.2mph /  21.2km/h 19.2mph /  30.9km/h 39% 0in /  0.0mm
19:15 26.1 °F /  -3.3 °C 3.2 °F /  -16.0 °C 29.9in /  1011.1hPa East 17.2mph /  27.7km/h 19.7mph /  31.7km/h 39% 0in /  0.0mm
19:21 26.1 °F /  -3.3 °C 3.2 °F /  -16.0 °C 29.9in /  1011.1hPa ENE 12.8mph /  20.6km/h 19.7mph /  31.7km/h 39% 0in /  0.0mm
19:26 26.1 °F /  -3.3 °C 3.2 °F /  -16.0 °C 29.9in /  1011.1hPa East 12.5mph /  20.1km/h 19.9mph /  32.0km/h 39% 0in /  0.0mm
19:31 26.1 °F /  -3.3 °C 3.2 °F /  -16.0 °C 29.9in /  1011.1hPa ENE 8.1mph /  13.0km/h 19.9mph /  32.0km/h 39% 0in /  0.0mm
19:36 26.1 °F /  -3.3 °C 3.2 °F /  -16.0 °C 29.9in /  1011.1hPa East 10.3mph /  16.6km/h 21.5mph /  34.6km/h 39% 0in /  0.0mm
19:41 25.9 °F /  -3.4 °C 3.2 °F /  -16.0 °C 29.9in /  1011.1hPa East 13mph /  20.9km/h 22.6mph /  36.4km/h 39% 0in /  0.0mm
19:46 25.9 °F /  -3.4 °C 3.2 °F /  -16.0 °C 29.9in /  1011.1hPa East 15.2mph /  24.5km/h 22.6mph /  36.4km/h 39% 0in /  0.0mm
19:51 25.9 °F /  -3.4 °C 5 °F /  -15.0 °C 29.9in /  1011.1hPa ENE 10.7mph /  17.2km/h 17.7mph /  28.5km/h 40% 0in /  0.0mm
19:56 25.7 °F /  -3.5 °C 3.2 °F /  -16.0 °C 29.9in /  1011.1hPa East 17mph /  27.4km/h 17.9mph /  28.8km/h 40% 0in /  0.0mm
20:01 25.7 °F /  -3.5 °C 5 °F /  -15.0 °C 29.9in /  1011.1hPa East 19.5mph /  31.4km/h 19.5mph /  31.4km/h 41% 0in /  0.0mm
20:06 25.7 °F /  -3.5 °C 5 °F /  -15.0 °C 29.9in /  1011.1hPa ENE 13mph /  20.9km/h 19.5mph /  31.4km/h 41% 0in /  0.0mm
20:11 25.5 °F /  -3.6 °C 5 °F /  -15.0 °C 29.9in /  1011.1hPa ENE 10.1mph /  16.3km/h 19.5mph /  31.4km/h 41% 0in /  0.0mm
20:16 25.5 °F /  -3.6 °C 5 °F /  -15.0 °C 29.9in /  1011.1hPa East 12.3mph /  19.8km/h 17mph /  27.4km/h 42% 0in /  0.0mm
20:21 25.3 °F /  -3.7 °C 5 °F /  -15.0 °C 29.9in /  1011.1hPa NE 10.3mph /  16.6km/h 17mph /  27.4km/h 42% 0in /  0.0mm
20:26 25.2 °F /  -3.8 °C 5 °F /  -15.0 °C 29.9in /  1011.1hPa NE 10.3mph /  16.6km/h 15.4mph /  24.8km/h 43% 0in /  0.0mm
20:31 25 °F /  -3.9 °C 5 °F /  -15.0 °C 29.8in /  1010.0hPa NE 13mph /  20.9km/h 18.1mph /  29.1km/h 43% 0in /  0.0mm
20:36 24.8 °F /  -4.0 °C 5 °F /  -15.0 °C 29.8in /  1010.0hPa ENE 11mph /  17.7km/h 18.1mph /  29.1km/h 44% 0in /  0.0mm
20:41 24.6 °F /  -4.1 °C 5 °F /  -15.0 °C 29.8in /  1010.0hPa ENE 6.9mph /  11.1km/h 15.4mph /  24.8km/h 44% 0in /  0.0mm
20:46 24.6 °F /  -4.1 °C 5 °F /  -15.0 °C 29.9in /  1011.1hPa NE 17.2mph /  27.7km/h 17.2mph /  27.7km/h 44% 0in /  0.0mm
20:51 24.4 °F /  -4.2 °C 5 °F /  -15.0 °C 29.9in /  1011.1hPa ENE 7.8mph /  12.6km/h 17.2mph /  27.7km/h 45% 0in /  0.0mm
20:57 24.4 °F /  -4.2 °C 5 °F /  -15.0 °C 29.9in /  1011.1hPa East 7.8mph /  12.6km/h 15.7mph /  25.3km/h 45% 0in /  0.0mm
21:02 24.3 °F /  -4.3 °C 5 °F /  -15.0 °C 29.8in /  1010.0hPa ENE 8.7mph /  14.0km/h 15.2mph /  24.5km/h 45% 0in /  0.0mm
21:07 24.1 °F /  -4.4 °C 5 °F /  -15.0 °C 29.8in /  1010.0hPa ENE 11mph /  17.7km/h 13.6mph /  21.9km/h 45% 0in /  0.0mm
21:12 24.1 °F /  -4.4 °C 5 °F /  -15.0 °C 29.8in /  1010.0hPa ENE 12.3mph /  19.8km/h 13.6mph /  21.9km/h 45% 0in /  0.0mm
21:17 23.9 °F /  -4.5 °C 5 °F /  -15.0 °C 29.8in /  1010.0hPa East 12.8mph /  20.6km/h 13.2mph /  21.2km/h 45% 0in /  0.0mm
21:22 23.9 °F /  -4.5 °C 5 °F /  -15.0 °C 29.8in /  1010.0hPa ENE 10.7mph /  17.2km/h 13.4mph /  21.6km/h 45% 0in /  0.0mm
21:27 23.7 °F /  -4.6 °C 5 °F /  -15.0 °C 29.8in /  1010.0hPa ENE 8.5mph /  13.7km/h 13.4mph /  21.6km/h 46% 0in /  0.0mm
21:32 23.7 °F /  -4.6 °C 5 °F /  -15.0 °C 29.9in /  1011.1hPa ENE 8.5mph /  13.7km/h 12.8mph /  20.6km/h 46% 0in /  0.0mm
21:37 23.5 °F /  -4.7 °C 5 °F /  -15.0 °C 29.9in /  1011.1hPa ENE 7.4mph /  11.9km/h 13.2mph /  21.2km/h 46% 0in /  0.0mm
21:42 23.5 °F /  -4.7 °C 5 °F /  -15.0 °C 29.9in /  1011.1hPa ENE 7.6mph /  12.2km/h 14.8mph /  23.8km/h 46% 0in /  0.0mm
21:47 23.5 °F /  -4.7 °C 5 °F /  -15.0 °C 29.8in /  1010.0hPa East 10.3mph /  16.6km/h 14.8mph /  23.8km/h 46% 0in /  0.0mm
21:52 23.5 °F /  -4.7 °C 5 °F /  -15.0 °C 29.8in /  1010.0hPa NE 8.5mph /  13.7km/h 13.2mph /  21.2km/h 46% 0in /  0.0mm
21:57 23.5 °F /  -4.7 °C 5 °F /  -15.0 °C 29.8in /  1010.0hPa ENE 8.5mph /  13.7km/h 13.4mph /  21.6km/h 46% 0in /  0.0mm
22:02 23.4 °F /  -4.8 °C 5 °F /  -15.0 °C 29.8in /  1010.0hPa ENE 11mph /  17.7km/h 15.4mph /  24.8km/h 46% 0in /  0.0mm
22:07 23.4 °F /  -4.8 °C 5 °F /  -15.0 °C 29.8in /  1010.0hPa East 11.2mph /  18.0km/h 15.4mph /  24.8km/h 46% 0in /  0.0mm
22:12 23.4 °F /  -4.8 °C 5 °F /  -15.0 °C 29.8in /  1010.0hPa ENE 6.7mph /  10.8km/h 13.9mph /  22.4km/h 46% 0in /  0.0mm
22:17 23.2 °F /  -4.9 °C 5 °F /  -15.0 °C 29.8in /  1010.0hPa NE 9.8mph /  15.8km/h 15.4mph /  24.8km/h 46% 0in /  0.0mm
22:22 23.2 °F /  -4.9 °C 5 °F /  -15.0 °C 29.8in /  1010.0hPa East 10.1mph /  16.3km/h 15.4mph /  24.8km/h 46% 0in /  0.0mm
22:27 23.2 °F /  -4.9 °C 5 °F /  -15.0 °C 29.8in /  1010.0hPa NNE 10.3mph /  16.6km/h 15.7mph /  25.3km/h 46% 0in /  0.0mm
22:32 23 °F /  -5.0 °C 5 °F /  -15.0 °C 29.8in /  1009.0hPa East 9.8mph /  15.8km/h 16.8mph /  27.0km/h 47% 0in /  0.0mm
22:37 23 °F /  -5.0 °C 5 °F /  -15.0 °C 29.8in /  1009.0hPa East 10.1mph /  16.3km/h 16.8mph /  27.0km/h 47% 0in /  0.0mm
22:43 23 °F /  -5.0 °C 5 °F /  -15.0 °C 29.8in /  1009.0hPa East 13.2mph /  21.2km/h 16.1mph /  25.9km/h 47% 0in /  0.0mm
22:48 22.8 °F /  -5.1 °C 5 °F /  -15.0 °C 29.8in /  1009.0hPa ENE 10.1mph /  16.3km/h 15.2mph /  24.5km/h 47% 0in /  0.0mm
22:53 22.8 °F /  -5.1 °C 5 °F /  -15.0 °C 29.8in /  1009.0hPa NE 15.2mph /  24.5km/h 15.2mph /  24.5km/h 47% 0in /  0.0mm
22:58 22.8 °F /  -5.1 °C 5 °F /  -15.0 °C 29.8in /  1009.0hPa East 17.2mph /  27.7km/h 17.2mph /  27.7km/h 47% 0in /  0.0mm
23:03 22.8 °F /  -5.1 °C 5 °F /  -15.0 °C 29.8in /  1009.0hPa East 10.7mph /  17.2km/h 17.2mph /  27.7km/h 47% 0in /  0.0mm
23:08 22.8 °F /  -5.1 °C 5 °F /  -15.0 °C 29.8in /  1009.0hPa East 13.4mph /  21.6km/h 17.2mph /  27.7km/h 47% 0in /  0.0mm
23:13 22.8 °F /  -5.1 °C 5 °F /  -15.0 °C 29.8in /  1009.0hPa East 5.6mph /  9.0km/h 17.2mph /  27.7km/h 47% 0in /  0.0mm
23:18 22.8 °F /  -5.1 °C 5 °F /  -15.0 °C 29.8in /  1009.0hPa ESE 8.7mph /  14.0km/h 17.2mph /  27.7km/h 47% 0in /  0.0mm
23:23 22.8 °F /  -5.1 °C 5 °F /  -15.0 °C 29.8in /  1009.0hPa ENE 9.6mph /  15.4km/h 17.2mph /  27.7km/h 47% 0in /  0.0mm
23:28 22.6 °F /  -5.2 °C 5 °F /  -15.0 °C 29.8in /  1009.0hPa NE 11mph /  17.7km/h 16.8mph /  27.0km/h 47% 0in /  0.0mm
23:33 22.6 °F /  -5.2 °C 5 °F /  -15.0 °C 29.8in /  1009.0hPa ENE 12.5mph /  20.1km/h 16.8mph /  27.0km/h 47% 0in /  0.0mm
23:38 22.6 °F /  -5.2 °C 5 °F /  -15.0 °C 29.8in /  1009.0hPa ENE 9.4mph /  15.1km/h 19.2mph /  30.9km/h 47% 0in /  0.0mm
23:43 22.6 °F /  -5.2 °C 5 °F /  -15.0 °C 29.8in /  1009.0hPa ENE 10.5mph /  16.9km/h 19.2mph /  30.9km/h 47% 0in /  0.0mm
23:48 22.6 °F /  -5.2 °C 5 °F /  -15.0 °C 29.8in /  1008.0hPa ENE 12.8mph /  20.6km/h 22.8mph /  36.7km/h 47% 0in /  0.0mm
23:53 22.6 °F /  -5.2 °C 5 °F /  -15.0 °C 29.8in /  1008.0hPa ENE 15.4mph /  24.8km/h 22.8mph /  36.7km/h 47% 0in /  0.0mm
23:58 22.6 °F /  -5.2 °C 5 °F /  -15.0 °C 29.8in /  1008.0hPa East 10.1mph /  16.3km/h 19.9mph /  32.0km/h 47% 0in /  0.0mm
Données Historique de Météo Turbie

Mise a jour : 23/06/2018 11:51:14
Généré par Cumulus 1.9.4 (1099)